createdAt,value
2018-11-03T00:01:59.458Z,5.40
2018-11-03T00:04:28.007Z,4.60
2018-11-03T00:06:56.559Z,4.72
2018-11-03T00:09:25.118Z,5.40
2018-11-03T00:11:53.713Z,4.50
2018-11-03T00:14:23.139Z,5.15
2018-11-03T00:16:51.683Z,4.58
2018-11-03T00:19:20.224Z,4.42
2018-11-03T00:21:48.810Z,4.80
2018-11-03T00:24:17.373Z,4.22
2018-11-03T00:26:45.918Z,4.00
2018-11-03T00:29:14.451Z,4.62
2018-11-03T00:31:43.019Z,4.08
2018-11-03T00:34:11.615Z,4.45
2018-11-03T00:36:40.147Z,4.20
2018-11-03T00:39:11.311Z,4.40
2018-11-03T00:41:40.131Z,4.12
2018-11-03T00:44:09.398Z,3.77
2018-11-03T00:46:38.180Z,4.22
2018-11-03T00:49:07.053Z,3.92
2018-11-03T00:53:05.504Z,3.92
2018-11-03T00:55:34.078Z,4.40
2018-11-03T00:58:02.623Z,4.03
2018-11-03T01:00:31.215Z,4.00
2018-11-03T01:02:59.771Z,3.55
2018-11-03T01:05:28.609Z,3.45
2018-11-03T01:07:57.331Z,3.40
2018-11-03T01:10:25.876Z,4.28
2018-11-03T01:12:54.454Z,3.50
2018-11-03T01:15:22.992Z,3.12
2018-11-03T01:17:51.567Z,3.60
2018-11-03T01:20:20.107Z,3.58
2018-11-03T01:22:48.998Z,3.47
2018-11-03T01:25:17.566Z,3.30
2018-11-03T01:27:46.250Z,3.35
2018-11-03T01:30:16.252Z,3.85
2018-11-03T01:32:45.068Z,2.70
2018-11-03T01:35:13.625Z,3.05
2018-11-03T01:37:42.193Z,2.60
2018-11-03T01:40:13.247Z,3.08
2018-11-03T01:42:42.267Z,3.12
2018-11-03T01:45:10.839Z,2.25
2018-11-03T01:47:39.376Z,2.75
2018-11-03T01:50:10.619Z,2.08
2018-11-03T01:52:39.970Z,2.08
2018-11-03T01:55:08.583Z,2.70
2018-11-03T01:57:38.207Z,2.58
2018-11-03T02:00:08.695Z,2.00
2018-11-03T02:02:37.270Z,2.47
2018-11-03T02:05:06.713Z,1.47
2018-11-03T02:07:35.667Z,1.50
2018-11-03T02:10:04.891Z,1.70
2018-11-03T02:12:33.424Z,1.57
2018-11-03T02:15:02.462Z,2.00
2018-11-03T02:17:31.151Z,1.82
2018-11-03T02:19:59.695Z,1.50
2018-11-03T02:22:28.243Z,1.75
2018-11-03T02:24:57.070Z,1.20
2018-11-03T02:27:25.607Z,1.17
2018-11-03T02:29:54.136Z,1.37
2018-11-03T02:32:22.903Z,1.30
2018-11-03T02:34:51.442Z,0.90
2018-11-03T02:37:19.986Z,1.05
2018-11-03T02:39:48.536Z,1.15
2018-11-03T02:42:17.104Z,1.12
2018-11-03T02:44:45.666Z,0.95
2018-11-03T02:47:14.256Z,1.22
2018-11-03T02:49:42.787Z,1.75
2018-11-03T02:52:11.524Z,1.02
2018-11-03T02:54:40.132Z,0.82
2018-11-03T02:57:08.903Z,1.10
2018-11-03T02:59:37.484Z,0.70
2018-11-03T03:02:06.100Z,0.80
2018-11-03T03:04:34.679Z,0.90
2018-11-03T03:07:03.227Z,1.35
2018-11-03T03:09:32.324Z,1.00
2018-11-03T03:12:00.874Z,0.80
2018-11-03T03:14:29.424Z,1.02
2018-11-03T03:16:58.409Z,0.95
2018-11-03T03:19:26.959Z,1.37
2018-11-03T03:21:55.754Z,0.72
2018-11-03T03:24:24.300Z,1.02
2018-11-03T03:26:53.004Z,1.10
2018-11-03T03:29:21.613Z,0.70
2018-11-03T03:31:50.179Z,1.25
2018-11-03T03:34:18.776Z,0.90
2018-11-03T03:36:47.343Z,1.05
2018-11-03T03:39:15.888Z,0.85
2018-11-03T03:41:44.485Z,0.78
2018-11-03T03:44:13.018Z,0.80
2018-11-03T03:46:41.791Z,1.00
2018-11-03T03:49:10.387Z,1.07
2018-11-03T03:51:38.921Z,0.90
2018-11-03T03:54:07.851Z,0.98
2018-11-03T03:56:36.446Z,1.30
2018-11-03T03:59:05.099Z,1.77
2018-11-03T04:01:33.651Z,0.65
2018-11-03T04:04:02.272Z,1.10
2018-11-03T04:06:31.279Z,1.00
2018-11-03T04:09:00.147Z,0.70
2018-11-03T04:11:28.833Z,0.88
2018-11-03T04:13:57.374Z,1.12
2018-11-03T04:16:25.899Z,1.10
2018-11-03T04:18:55.531Z,1.00
2018-11-03T04:21:29.207Z,0.80
2018-11-03T04:23:59.147Z,0.98
2018-11-03T04:26:29.147Z,0.95
2018-11-03T04:28:58.285Z,0.80
2018-11-03T04:31:27.574Z,0.93
2018-11-03T04:33:56.458Z,0.98
2018-11-03T04:36:25.221Z,1.00
2018-11-03T04:38:53.754Z,1.10
2018-11-03T04:41:22.711Z,0.98
2018-11-03T04:43:51.311Z,0.90
2018-11-03T04:46:19.882Z,1.27
2018-11-03T04:48:48.470Z,0.93
2018-11-03T04:51:17.052Z,0.98
2018-11-03T04:53:45.606Z,0.70
2018-11-03T04:56:14.423Z,0.88
2018-11-03T04:58:43.359Z,0.80
2018-11-03T05:01:11.906Z,0.80
2018-11-03T05:03:40.447Z,1.12
2018-11-03T05:06:08.979Z,0.80
2018-11-03T05:08:37.904Z,0.98
2018-11-03T05:11:06.542Z,0.90
2018-11-03T05:13:35.759Z,0.98
2018-11-03T05:16:04.366Z,0.70
2018-11-03T05:18:32.899Z,0.78
2018-11-03T05:21:01.594Z,0.93
2018-11-03T05:23:30.163Z,0.68
2018-11-03T05:25:58.671Z,0.80
2018-11-03T05:28:27.237Z,1.10
2018-11-03T05:30:55.792Z,1.15
2018-11-03T05:33:24.558Z,0.80
2018-11-03T05:35:53.086Z,0.90
2018-11-03T05:38:21.645Z,0.90
2018-11-03T05:40:50.211Z,0.65
2018-11-03T05:43:18.743Z,0.80
2018-11-03T05:45:48.196Z,0.62
2018-11-03T05:48:16.719Z,0.82
2018-11-03T05:50:45.283Z,0.80
2018-11-03T05:53:13.859Z,0.60
2018-11-03T05:55:42.690Z,0.80
2018-11-03T05:58:11.262Z,0.90
2018-11-03T06:00:39.836Z,0.70
2018-11-03T06:03:08.387Z,0.70
2018-11-03T06:05:37.216Z,0.70
2018-11-03T06:08:05.767Z,0.60
2018-11-03T06:10:34.315Z,0.70
2018-11-03T06:13:03.118Z,0.80
2018-11-03T06:15:31.810Z,1.10
2018-11-03T06:18:00.655Z,0.75
2018-11-03T06:20:29.187Z,0.98
2018-11-03T06:22:57.807Z,1.00
2018-11-03T06:25:26.303Z,1.00
2018-11-03T06:27:54.900Z,1.15
2018-11-03T06:30:24.079Z,1.00
2018-11-03T06:32:52.622Z,1.00
2018-11-03T06:35:21.215Z,0.90
2018-11-03T06:37:49.754Z,1.17
2018-11-03T06:40:18.306Z,0.80
2018-11-03T06:42:46.864Z,0.70
2018-11-03T06:45:15.778Z,1.12
2018-11-03T06:47:44.328Z,0.98
2018-11-03T06:50:13.019Z,0.70
2018-11-03T06:52:41.812Z,1.02
2018-11-03T06:55:10.501Z,1.05
2018-11-03T06:57:39.051Z,0.80
2018-11-03T07:00:09.578Z,0.80
2018-11-03T07:02:38.143Z,0.82
2018-11-03T07:05:08.364Z,0.70
2018-11-03T07:07:37.279Z,0.80
2018-11-03T07:11:36.283Z,0.93
2018-11-03T07:14:04.912Z,0.75
2018-11-03T07:16:34.007Z,1.10
2018-11-03T07:19:02.962Z,1.15
2018-11-03T07:21:31.569Z,0.80
2018-11-03T07:24:00.103Z,1.00
2018-11-03T07:26:28.662Z,0.93
2018-11-03T07:28:57.229Z,0.93
2018-11-03T07:31:26.191Z,1.15
2018-11-03T07:33:54.754Z,0.90
2018-11-03T07:36:23.743Z,1.10
2018-11-03T07:38:52.285Z,0.80
2018-11-03T07:41:20.869Z,0.90
2018-11-03T07:43:50.000Z,0.90
2018-11-03T07:46:18.860Z,0.95
2018-11-03T07:48:48.153Z,1.00
2018-11-03T07:51:16.639Z,0.75
2018-11-03T07:53:45.188Z,0.90
2018-11-03T07:56:13.716Z,1.02
2018-11-03T07:58:42.779Z,0.95
2018-11-03T08:01:11.320Z,0.90
2018-11-03T08:03:39.858Z,1.02
2018-11-03T08:06:08.717Z,0.85
2018-11-03T08:08:37.344Z,0.90
2018-11-03T08:11:05.991Z,0.90
2018-11-03T08:13:34.531Z,0.80
2018-11-03T08:16:03.074Z,1.20
2018-11-03T08:18:31.911Z,0.82
2018-11-03T08:21:00.472Z,1.00
2018-11-03T08:23:29.023Z,0.78
2018-11-03T08:25:57.574Z,0.82
2018-11-03T08:28:26.197Z,1.07
2018-11-03T08:30:54.876Z,0.80
2018-11-03T08:33:23.730Z,1.07
2018-11-03T08:35:52.292Z,0.85
2018-11-03T08:38:20.823Z,0.88
2018-11-03T08:40:49.390Z,0.95
2018-11-03T08:43:18.258Z,1.00
2018-11-03T08:45:46.784Z,1.20
2018-11-03T08:48:15.370Z,0.90
2018-11-03T08:50:43.895Z,1.22
2018-11-03T08:53:12.436Z,0.90
2018-11-03T08:55:41.247Z,1.05
2018-11-03T08:58:09.795Z,0.90
2018-11-03T09:00:38.337Z,0.90
2018-11-03T09:03:07.307Z,0.75
2018-11-03T09:05:35.885Z,0.95
2018-11-03T09:08:04.857Z,0.98
2018-11-03T09:10:33.560Z,0.60
2018-11-03T09:13:02.116Z,0.70
2018-11-03T09:15:31.155Z,0.72
2018-11-03T09:17:59.727Z,0.70
2018-11-03T09:20:28.276Z,0.88
2018-11-03T09:22:56.809Z,1.02
2018-11-03T09:25:25.381Z,1.05
2018-11-03T09:27:54.573Z,0.65
2018-11-03T09:30:23.115Z,1.10
2018-11-03T09:32:51.706Z,0.85
2018-11-03T09:35:20.247Z,0.75
2018-11-03T09:37:48.819Z,0.78
2018-11-03T09:40:18.414Z,0.75
2018-11-03T09:42:47.976Z,0.62
2018-11-03T09:45:16.487Z,0.80
2018-11-03T09:47:45.746Z,0.70
2018-11-03T09:50:15.241Z,0.75
2018-11-03T09:52:44.375Z,0.90
2018-11-03T09:55:15.233Z,0.80
2018-11-03T09:57:44.082Z,1.00
2018-11-03T10:00:19.240Z,0.88
2018-11-03T10:02:47.798Z,1.00
2018-11-03T10:05:16.894Z,0.68
2018-11-03T10:07:45.421Z,1.20
2018-11-03T10:10:15.958Z,1.02
2018-11-03T10:12:44.547Z,0.93
2018-11-03T10:15:14.813Z,0.90
2018-11-03T10:17:44.271Z,1.17
2018-11-03T10:20:12.976Z,0.80
2018-11-03T10:22:41.541Z,1.10
2018-11-03T10:25:13.236Z,1.00
2018-11-03T10:27:42.312Z,0.93
2018-11-03T10:30:12.604Z,0.90
2018-11-03T10:32:41.685Z,0.90
2018-11-03T10:35:11.619Z,1.00
2018-11-03T10:37:40.188Z,1.35
2018-11-03T10:40:12.404Z,1.20
2018-11-03T10:42:41.548Z,0.85
2018-11-03T10:45:11.891Z,0.93
2018-11-03T10:47:40.862Z,0.98
2018-11-03T10:50:13.753Z,0.80
2018-11-03T10:52:43.542Z,0.90
2018-11-03T10:55:13.435Z,0.70
2018-11-03T10:57:42.623Z,0.90
2018-11-03T11:00:18.932Z,1.32
2018-11-03T11:02:52.744Z,0.80
2018-11-03T11:05:35.123Z,1.10
2018-11-03T11:08:09.044Z,0.80
2018-11-03T11:10:42.973Z,0.80
2018-11-03T11:13:28.122Z,0.60
2018-11-03T11:15:58.342Z,0.70
2018-11-03T11:18:26.859Z,0.70
2018-11-03T11:20:55.450Z,0.72
2018-11-03T11:23:24.476Z,0.80
2018-11-03T11:25:53.223Z,0.80
2018-11-03T11:28:21.784Z,0.70
2018-11-03T11:30:50.354Z,0.70
2018-11-03T11:33:19.463Z,0.90
2018-11-03T11:35:48.343Z,1.00
2018-11-03T11:38:16.907Z,0.70
2018-11-03T11:40:45.471Z,0.90
2018-11-03T11:43:14.558Z,1.02
2018-11-03T11:45:43.058Z,1.00
2018-11-03T11:48:11.486Z,0.78
2018-11-03T11:50:39.708Z,0.65
2018-11-03T11:53:07.918Z,0.80
2018-11-03T11:55:36.144Z,0.85
2018-11-03T11:58:05.086Z,0.90
2018-11-03T12:00:33.821Z,0.90
2018-11-03T12:03:02.054Z,0.65
2018-11-03T12:05:30.242Z,0.90
2018-11-03T12:07:58.926Z,0.90
2018-11-03T12:10:27.518Z,0.90
2018-11-03T12:12:55.743Z,1.20
2018-11-03T12:15:24.169Z,1.60
2018-11-03T12:17:52.402Z,0.90
2018-11-03T12:20:21.058Z,0.98
2018-11-03T12:22:49.403Z,0.65
2018-11-03T12:25:17.613Z,1.15
2018-11-03T12:27:45.826Z,0.98
2018-11-03T12:30:15.078Z,0.90
2018-11-03T12:32:43.370Z,0.70
2018-11-03T12:35:12.145Z,1.00
2018-11-03T12:37:40.766Z,0.90
2018-11-03T12:40:10.853Z,1.05
2018-11-03T12:42:39.712Z,0.80
2018-11-03T12:45:08.870Z,1.30
2018-11-03T12:47:37.526Z,0.78
2018-11-03T12:50:06.998Z,0.90
2018-11-03T12:52:35.218Z,1.22
2018-11-03T12:55:03.483Z,0.90
2018-11-03T12:57:32.575Z,1.30
2018-11-03T13:00:00.927Z,1.30
2018-11-03T13:02:29.198Z,1.07
2018-11-03T13:04:57.566Z,1.35
2018-11-03T13:07:25.646Z,0.90
2018-11-03T13:09:54.472Z,0.85
2018-11-03T13:12:22.675Z,1.05
2018-11-03T13:14:50.938Z,0.90
2018-11-03T13:17:19.134Z,1.10
2018-11-03T13:19:47.334Z,0.85
2018-11-03T13:22:15.822Z,0.70
2018-11-03T13:24:44.095Z,1.40
2018-11-03T13:27:12.330Z,1.17
2018-11-03T13:29:40.650Z,0.90
2018-11-03T13:32:09.363Z,0.93
2018-11-03T13:34:37.586Z,1.20
2018-11-03T13:37:05.907Z,0.70
2018-11-03T13:39:34.167Z,1.00
2018-11-03T13:42:02.391Z,0.90
2018-11-03T13:44:30.994Z,0.90
2018-11-03T13:46:59.195Z,0.90
2018-11-03T13:49:27.410Z,1.02
2018-11-03T13:51:55.619Z,0.90
2018-11-03T13:54:24.126Z,0.80
2018-11-03T13:56:52.895Z,0.80
2018-11-03T13:59:21.088Z,0.90
2018-11-03T14:01:49.291Z,0.95
2018-11-03T14:04:17.494Z,0.90
2018-11-03T14:06:45.691Z,0.70
2018-11-03T14:09:13.891Z,1.62
2018-11-03T14:11:42.115Z,0.72
2018-11-03T14:14:10.719Z,0.95
2018-11-03T14:16:39.013Z,0.90
2018-11-03T14:19:07.214Z,1.00
2018-11-03T14:21:35.678Z,0.93
2018-11-03T14:24:03.898Z,0.75
2018-11-03T14:26:32.210Z,0.70
2018-11-03T14:29:00.589Z,0.98
2018-11-03T14:31:28.787Z,1.50
2018-11-03T14:33:56.990Z,1.05
2018-11-03T14:36:25.285Z,1.10
2018-11-03T14:38:53.827Z,1.40
2018-11-03T14:41:22.041Z,1.15
2018-11-03T14:43:50.249Z,0.90
2018-11-03T14:46:18.517Z,0.80
2018-11-03T14:48:46.739Z,0.70
2018-11-03T14:51:14.934Z,0.80
2018-11-03T14:53:43.138Z,1.00
2018-11-03T14:56:11.884Z,1.17
2018-11-03T14:58:40.099Z,1.45
2018-11-03T15:01:08.390Z,1.98
2018-11-03T15:03:36.590Z,1.32
2018-11-03T15:06:05.143Z,2.20
2018-11-03T15:08:33.388Z,1.55
2018-11-03T15:11:01.591Z,1.10
2018-11-03T15:13:29.984Z,1.10
2018-11-03T15:15:58.128Z,1.85
2018-11-03T15:18:26.342Z,1.30
2018-11-03T15:20:55.055Z,1.20
2018-11-03T15:23:23.486Z,1.30
2018-11-03T15:25:51.694Z,1.30
2018-11-03T15:28:19.898Z,1.57
2018-11-03T15:30:48.130Z,1.60
2018-11-03T15:33:16.330Z,1.30
2018-11-03T15:35:44.782Z,1.20
2018-11-03T15:38:13.406Z,1.22
2018-11-03T15:40:41.615Z,1.45
2018-11-03T15:43:10.030Z,1.20
2018-11-03T15:45:38.593Z,1.20
2018-11-03T15:48:06.993Z,1.05
2018-11-03T15:50:39.602Z,1.17
2018-11-03T15:53:08.463Z,1.27
2018-11-03T15:55:36.673Z,1.35
2018-11-03T15:58:05.346Z,1.55
2018-11-03T16:00:33.561Z,1.05
2018-11-03T16:03:01.763Z,0.93
2018-11-03T16:05:29.992Z,1.40
2018-11-03T16:07:58.203Z,1.60
2018-11-03T16:10:26.558Z,1.17
2018-11-03T16:12:54.778Z,1.17
2018-11-03T16:15:22.982Z,1.52
2018-11-03T16:17:51.178Z,1.42
2018-11-03T16:20:19.417Z,1.22
2018-11-03T16:22:47.737Z,1.10
2018-11-03T16:25:15.921Z,1.22
2018-11-03T16:27:44.670Z,1.70
2018-11-03T16:30:15.623Z,1.75
2018-11-03T16:32:44.702Z,1.45
2018-11-03T16:35:12.802Z,1.45
2018-11-03T16:37:41.338Z,1.40
2018-11-03T16:40:11.458Z,2.00
2018-11-03T16:42:40.154Z,1.72
2018-11-03T16:45:09.651Z,1.90
2018-11-03T16:47:38.313Z,1.22
2018-11-03T16:50:07.838Z,1.52
2018-11-03T16:52:36.191Z,1.45
2018-11-03T16:55:04.883Z,1.92
2018-11-03T16:57:33.159Z,1.80
2018-11-03T17:00:01.718Z,1.92
2018-11-03T17:02:29.934Z,2.20
2018-11-03T17:04:58.554Z,2.10
2018-11-03T17:14:10.447Z,1.85
2018-11-03T17:16:39.270Z,2.12
2018-11-03T17:19:07.478Z,2.75
2018-11-03T17:21:35.682Z,3.33
2018-11-03T17:24:03.898Z,2.72
2018-11-03T17:26:32.579Z,2.62
2018-11-03T17:29:01.002Z,2.52
2018-11-03T17:31:29.198Z,2.25
2018-11-03T17:33:57.862Z,1.87
2018-11-03T17:36:26.141Z,2.30
2018-11-03T17:38:54.278Z,2.25
2018-11-03T17:41:22.998Z,2.00
2018-11-03T17:43:51.460Z,3.08
2018-11-03T17:53:04.474Z,1.87
2018-11-03T17:55:32.702Z,2.30
2018-11-03T17:58:01.270Z,2.92
2018-11-03T18:00:29.761Z,2.62
2018-11-03T18:02:57.766Z,3.15
2018-11-03T18:05:26.120Z,3.20
2018-11-03T18:07:54.314Z,2.60
2018-11-03T18:10:22.555Z,3.20
2018-11-03T18:12:50.762Z,3.75
2018-11-03T18:15:19.637Z,2.90
2018-11-03T18:17:47.961Z,3.08
2018-11-03T18:20:16.606Z,2.80
2018-11-03T18:22:44.913Z,3.00
2018-11-03T18:25:13.120Z,3.72
2018-11-03T18:27:41.563Z,3.10
2018-11-03T18:30:10.995Z,4.20
2018-11-03T18:32:39.704Z,4.30
2018-11-03T18:35:08.172Z,4.12
2018-11-03T18:37:36.406Z,4.30
2018-11-03T18:40:05.399Z,2.90
2018-11-03T18:42:33.618Z,3.42
2018-11-03T18:45:02.269Z,3.30
2018-11-03T18:47:30.514Z,3.60
2018-11-03T18:49:59.157Z,3.25
2018-11-03T18:52:27.506Z,3.10
2018-11-03T18:54:55.717Z,3.00
2018-11-03T18:57:23.936Z,3.17
2018-11-03T18:59:52.614Z,2.70
2018-11-03T19:02:20.834Z,3.12
2018-11-03T19:04:49.052Z,2.22
2018-11-03T19:07:17.271Z,3.05
2018-11-03T19:09:45.742Z,3.15
2018-11-03T19:12:14.127Z,3.40
2018-11-03T19:14:42.347Z,2.72
2018-11-03T19:17:10.643Z,2.98
2018-11-03T19:19:38.826Z,2.75
2018-11-03T19:22:07.579Z,2.90
2018-11-03T19:24:36.206Z,3.60
2018-11-03T19:27:05.082Z,3.65
2018-11-03T19:29:33.311Z,3.08
2018-11-03T19:32:01.627Z,5.67
2018-11-03T19:34:29.876Z,3.15
2018-11-03T19:36:58.118Z,2.75
2018-11-03T19:39:26.340Z,4.12
2018-11-03T19:41:55.007Z,3.65
2018-11-03T19:44:23.220Z,3.42
2018-11-03T19:46:51.426Z,3.30
2018-11-03T19:49:19.638Z,2.30
2018-11-03T19:51:47.977Z,1.90
2018-11-03T19:54:16.395Z,1.90
2018-11-03T19:56:44.607Z,2.10
2018-11-03T19:59:12.802Z,2.20
2018-11-03T20:01:41.003Z,2.40
2018-11-03T20:04:09.202Z,3.17
2018-11-03T20:06:37.414Z,2.17
2018-11-03T20:09:06.638Z,2.35
2018-11-03T20:11:35.058Z,2.37
2018-11-03T20:14:03.392Z,2.15
2018-11-03T20:16:31.566Z,1.60
2018-11-03T20:18:59.766Z,1.50
2018-11-03T20:21:28.171Z,1.65
2018-11-03T20:23:56.603Z,1.90
2018-11-03T20:26:25.254Z,1.47
2018-11-03T20:28:53.506Z,1.75
2018-11-03T20:31:21.729Z,2.00
2018-11-03T20:33:49.926Z,2.75
2018-11-03T20:36:18.130Z,1.95
2018-11-03T20:38:46.350Z,2.50
2018-11-03T20:41:14.548Z,2.27
2018-11-03T20:43:43.167Z,2.75
2018-11-03T20:46:11.370Z,2.27
2018-11-03T20:48:39.770Z,2.22
2018-11-03T20:51:10.527Z,3.42
2018-11-03T20:53:39.642Z,4.00
2018-11-03T20:56:08.305Z,3.62
2018-11-03T20:58:36.568Z,2.12
2018-11-03T21:01:05.822Z,1.62
2018-11-03T21:03:34.175Z,1.67
2018-11-03T21:06:02.390Z,1.60
2018-11-03T21:08:30.904Z,2.12
2018-11-03T21:10:59.118Z,1.70
2018-11-03T21:13:27.466Z,1.50
2018-11-03T21:15:55.690Z,1.20
2018-11-03T21:18:23.926Z,1.37
2018-11-03T21:20:52.171Z,1.70
2018-11-03T21:23:20.422Z,2.10
2018-11-03T21:25:48.835Z,1.95
2018-11-03T21:28:17.107Z,3.75
2018-11-03T21:30:45.630Z,1.55
2018-11-03T21:33:14.348Z,1.77
2018-11-03T21:35:42.670Z,1.90
2018-11-03T21:38:10.887Z,1.42
2018-11-03T21:40:39.103Z,2.10
2018-11-03T21:43:07.419Z,1.60
2018-11-03T21:45:35.614Z,2.05
2018-11-03T21:48:03.827Z,1.42
2018-11-03T21:50:32.031Z,1.42
2018-11-03T21:53:00.617Z,2.00
2018-11-03T21:55:28.831Z,1.25
2018-11-03T21:57:57.098Z,1.20
2018-11-03T22:00:25.854Z,1.45
2018-11-03T22:02:54.066Z,1.60
2018-11-03T22:05:22.274Z,1.20
2018-11-03T22:07:50.471Z,1.30
2018-11-03T22:10:18.668Z,1.35
2018-11-03T22:12:47.242Z,1.45
2018-11-03T22:15:15.447Z,1.50
2018-11-03T22:17:44.110Z,1.37
2018-11-03T22:20:12.961Z,1.27
2018-11-03T22:22:41.274Z,1.25
2018-11-03T22:25:11.483Z,1.25
2018-11-03T22:27:39.887Z,1.10
2018-11-03T22:30:09.590Z,0.90
2018-11-03T22:32:38.023Z,1.60
2018-11-03T22:35:07.043Z,1.00
2018-11-03T22:37:35.806Z,1.07
2018-11-03T22:40:04.253Z,0.95
2018-11-03T22:42:32.466Z,0.90
2018-11-03T22:45:00.674Z,1.45
2018-11-03T22:47:28.911Z,0.95
2018-11-03T22:49:57.106Z,1.00
2018-11-03T22:52:25.803Z,1.32
2018-11-03T22:54:54.007Z,1.20
2018-11-03T22:57:22.218Z,1.15
2018-11-03T22:59:50.459Z,1.55
2018-11-03T23:02:18.671Z,1.30
2018-11-03T23:04:46.919Z,1.20
2018-11-03T23:07:15.209Z,1.10
2018-11-03T23:09:43.650Z,1.20
2018-11-03T23:12:11.873Z,2.22
2018-11-03T23:14:40.386Z,1.47
2018-11-03T23:17:08.611Z,1.07
2018-11-03T23:19:36.807Z,0.80
2018-11-03T23:22:06.087Z,1.60
2018-11-03T23:24:34.295Z,1.15
2018-11-03T23:27:02.507Z,0.88
2018-11-03T23:29:31.291Z,1.12
2018-11-03T23:31:59.963Z,1.20
2018-11-03T23:34:28.175Z,1.45
2018-11-03T23:36:56.378Z,1.15
2018-11-03T23:39:24.571Z,2.90
2018-11-03T23:41:52.788Z,1.50
2018-11-03T23:44:21.029Z,1.80
2018-11-03T23:46:49.242Z,1.22
2018-11-03T23:49:17.790Z,1.05
2018-11-03T23:51:45.987Z,1.20
2018-11-03T23:54:14.195Z,1.42
2018-11-03T23:56:42.454Z,1.57
2018-11-03T23:59:10.668Z,1.12
